sensor_id;sensor_type;location;lat;lon;timestamp;pressure;altitude;pressure_sealevel;temperature;humidity
6514;BME280;3290;47.716;9.070;2023-07-29T00:00:30;96596.03;;;20.28;100.00
6514;BME280;3290;47.716;9.070;2023-07-29T00:02:55;96594.75;;;20.21;100.00
6514;BME280;3290;47.716;9.070;2023-07-29T00:05:21;96605.22;;;20.41;100.00
6514;BME280;3290;47.716;9.070;2023-07-29T00:07:46;96613.72;;;20.43;100.00
6514;BME280;3290;47.716;9.070;2023-07-29T00:10:11;96602.94;;;20.52;100.00
6514;BME280;3290;47.716;9.070;2023-07-29T00:12:37;96607.06;;;20.17;100.00
6514;BME280;3290;47.716;9.070;2023-07-29T00:15:02;96609.41;;;20.23;100.00
6514;BME280;3290;47.716;9.070;2023-07-29T00:17:28;96607.06;;;20.17;100.00
6514;BME280;3290;47.716;9.070;2023-07-29T00:19:53;96598.59;;;20.10;100.00
6514;BME280;3290;47.716;9.070;2023-07-29T00:22:18;96597.03;;;20.09;100.00
6514;BME280;3290;47.716;9.070;2023-07-29T00:24:44;96581.72;;;19.96;100.00
6514;BME280;3290;47.716;9.070;2023-07-29T00:27:09;96578.69;;;20.08;100.00
6514;BME280;3290;47.716;9.070;2023-07-29T00:29:34;96570.31;;;20.19;100.00
6514;BME280;3290;47.716;9.070;2023-07-29T00:32:00;96568.16;;;20.21;100.00
6514;BME280;3290;47.716;9.070;2023-07-29T00:34:25;96574.66;;;20.33;100.00
6514;BME280;3290;47.716;9.070;2023-07-29T00:36:50;96575.44;;;20.39;100.00
6514;BME280;3290;47.716;9.070;2023-07-29T00:39:16;96572.13;;;20.47;100.00
6514;BME280;3290;47.716;9.070;2023-07-29T00:41:41;96585.50;;;20.42;100.00
6514;BME280;3290;47.716;9.070;2023-07-29T00:44:06;96579.16;;;20.38;100.00
6514;BME280;3290;47.716;9.070;2023-07-29T00:46:34;96569.81;;;20.40;100.00
6514;BME280;3290;47.716;9.070;2023-07-29T00:49:00;96566.97;;;20.08;100.00
6514;BME280;3290;47.716;9.070;2023-07-29T00:51:25;96573.56;;;20.16;100.00
6514;BME280;3290;47.716;9.070;2023-07-29T00:53:51;96569.25;;;20.20;100.00
6514;BME280;3290;47.716;9.070;2023-07-29T00:56:16;96573.72;;;20.24;100.00
6514;BME280;3290;47.716;9.070;2023-07-29T00:58:42;96578.41;;;20.09;100.00
6514;BME280;3290;47.716;9.070;2023-07-29T01:01:07;96580.25;;;20.08;100.00
6514;BME280;3290;47.716;9.070;2023-07-29T01:03:33;96577.31;;;20.10;100.00
6514;BME280;3290;47.716;9.070;2023-07-29T01:06:33;96580.31;;;20.04;100.00
6514;BME280;3290;47.716;9.070;2023-07-29T01:09:06;96578.13;;;19.82;100.00
6514;BME280;3290;47.716;9.070;2023-07-29T01:11:58;96580.59;;;19.74;100.00
6514;BME280;3290;47.716;9.070;2023-07-29T01:17:48;96581.72;;;19.96;100.00
6514;BME280;3290;47.716;9.070;2023-07-29T01:20:15;96579.19;;;19.81;100.00
6514;BME280;3290;47.716;9.070;2023-07-29T01:22:41;96561.41;;;19.77;100.00
6514;BME280;3290;47.716;9.070;2023-07-29T01:25:07;96568.09;;;19.74;100.00
6514;BME280;3290;47.716;9.070;2023-07-29T01:27:32;96567.66;;;19.63;100.00
6514;BME280;3290;47.716;9.070;2023-07-29T01:29:58;96559.09;;;19.70;100.00
6514;BME280;3290;47.716;9.070;2023-07-29T01:35:36;96557.50;;;19.98;100.00
6514;BME280;3290;47.716;9.070;2023-07-29T01:40:27;96551.09;;;19.70;100.00
6514;BME280;3290;47.716;9.070;2023-07-29T01:42:53;96559.66;;;19.63;100.00
6514;BME280;3290;47.716;9.070;2023-07-29T01:45:23;96558.09;;;19.62;100.00
6514;BME280;3290;47.716;9.070;2023-07-29T01:47:48;96552.22;;;19.65;100.00
6514;BME280;3290;47.716;9.070;2023-07-29T01:50:14;96560.66;;;19.71;100.00
6514;BME280;3290;47.716;9.070;2023-07-29T01:52:39;96558.00;;;19.71;100.00
6514;BME280;3290;47.716;9.070;2023-07-29T01:55:05;96545.91;;;19.56;100.00
6514;BME280;3290;47.716;9.070;2023-07-29T01:57:30;96546.28;;;19.44;100.00
6514;BME280;3290;47.716;9.070;2023-07-29T01:59:55;96542.25;;;19.47;100.00
6514;BME280;3290;47.716;9.070;2023-07-29T02:02:21;96552.34;;;19.50;100.00
6514;BME280;3290;47.716;9.070;2023-07-29T02:04:46;96543.78;;;19.53;100.00
6514;BME280;3290;47.716;9.070;2023-07-29T02:07:16;96546.75;;;19.51;100.00
6514;BME280;3290;47.716;9.070;2023-07-29T02:09:42;96535.28;;;19.56;100.00
6514;BME280;3290;47.716;9.070;2023-07-29T02:12:07;96533.00;;;19.72;100.00
6514;BME280;3290;47.716;9.070;2023-07-29T02:14:32;96530.94;;;19.65;100.00
6514;BME280;3290;47.716;9.070;2023-07-29T02:16:58;96533.56;;;19.69;100.00
6514;BME280;3290;47.716;9.070;2023-07-29T02:19:23;96528.19;;;19.74;100.00
6514;BME280;3290;47.716;9.070;2023-07-29T02:21:48;96518.63;;;19.73;100.00
6514;BME280;3290;47.716;9.070;2023-07-29T02:24:14;96520.31;;;19.65;100.00
6514;BME280;3290;47.716;9.070;2023-07-29T02:26:41;96521.25;;;19.78;100.00
6514;BME280;3290;47.716;9.070;2023-07-29T02:29:06;96529.25;;;19.73;100.00
6514;BME280;3290;47.716;9.070;2023-07-29T02:31:32;96524.56;;;19.94;100.00
6514;BME280;3290;47.716;9.070;2023-07-29T02:33:57;96539.75;;;20.16;100.00
6514;BME280;3290;47.716;9.070;2023-07-29T02:36:23;96537.81;;;20.22;100.00
6514;BME280;3290;47.716;9.070;2023-07-29T02:38:48;96532.69;;;20.30;100.00
6514;BME280;3290;47.716;9.070;2023-07-29T02:41:14;96536.34;;;20.34;100.00
6514;BME280;3290;47.716;9.070;2023-07-29T02:43:42;96537.28;;;20.25;100.00
6514;BME280;3290;47.716;9.070;2023-07-29T02:46:07;96537.13;;;20.11;100.00
6514;BME280;3290;47.716;9.070;2023-07-29T02:48:32;96530.59;;;20.04;100.00
6514;BME280;3290;47.716;9.070;2023-07-29T02:50:58;96526.50;;;19.88;100.00
6514;BME280;3290;47.716;9.070;2023-07-29T02:53:24;96528.88;;;19.90;100.00
6514;BME280;3290;47.716;9.070;2023-07-29T02:55:50;96530.06;;;19.74;100.00
6514;BME280;3290;47.716;9.070;2023-07-29T02:58:15;96526.31;;;19.47;100.00
6514;BME280;3290;47.716;9.070;2023-07-29T03:00:40;96528.94;;;19.80;100.00
6514;BME280;3290;47.716;9.070;2023-07-29T03:03:07;96520.03;;;19.94;100.00
6514;BME280;3290;47.716;9.070;2023-07-29T03:05:33;96519.94;;;19.76;100.00
6514;BME280;3290;47.716;9.070;2023-07-29T03:07:59;96521.31;;;19.68;100.00
6514;BME280;3290;47.716;9.070;2023-07-29T03:10:24;96525.88;;;19.96;100.00
6514;BME280;3290;47.716;9.070;2023-07-29T03:12:50;96528.53;;;19.96;100.00
6514;BME280;3290;47.716;9.070;2023-07-29T03:15:16;96521.88;;;19.99;100.00
6514;BME280;3290;47.716;9.070;2023-07-29T03:17:41;96528.06;;;19.89;100.00
6514;BME280;3290;47.716;9.070;2023-07-29T03:20:07;96533.66;;;20.16;100.00
6514;BME280;3290;47.716;9.070;2023-07-29T03:22:33;96523.22;;;20.19;100.00
6514;BME280;3290;47.716;9.070;2023-07-29T03:24:58;96530.63;;;20.22;100.00
6514;BME280;3290;47.716;9.070;2023-07-29T03:27:23;96526.97;;;20.18;100.00
6514;BME280;3290;47.716;9.070;2023-07-29T03:29:49;96521.75;;;20.32;100.00
6514;BME280;3290;47.716;9.070;2023-07-29T03:32:14;96518.91;;;20.23;100.00
6514;BME280;3290;47.716;9.070;2023-07-29T03:34:39;96518.13;;;20.23;100.00
6514;BME280;3290;47.716;9.070;2023-07-29T03:37:05;96526.50;;;20.35;100.00
6514;BME280;3290;47.716;9.070;2023-07-29T03:39:31;96527.75;;;20.19;100.00
6514;BME280;3290;47.716;9.070;2023-07-29T03:41:57;96531.13;;;20.24;100.00
6514;BME280;3290;47.716;9.070;2023-07-29T03:44:22;96527.97;;;20.22;100.00
6514;BME280;3290;47.716;9.070;2023-07-29T03:46:48;96532.97;;;20.29;100.00
6514;BME280;3290;47.716;9.070;2023-07-29T03:49:13;96540.22;;;20.23;100.00
6514;BME280;3290;47.716;9.070;2023-07-29T03:51:39;96544.06;;;20.36;100.00
6514;BME280;3290;47.716;9.070;2023-07-29T03:54:04;96549.13;;;20.55;100.00
6514;BME280;3290;47.716;9.070;2023-07-29T03:56:29;96550.56;;;20.48;100.00
6514;BME280;3290;47.716;9.070;2023-07-29T03:59:03;96541.25;;;20.46;100.00
6514;BME280;3290;47.716;9.070;2023-07-29T04:01:28;96549.78;;;20.48;100.00
6514;BME280;3290;47.716;9.070;2023-07-29T04:03:54;96552.44;;;20.48;100.00
6514;BME280;3290;47.716;9.070;2023-07-29T04:06:20;96533.59;;;20.62;100.00
6514;BME280;3290;47.716;9.070;2023-07-29T04:08:45;96539.47;;;20.59;100.00
6514;BME280;3290;47.716;9.070;2023-07-29T04:11:10;96534.31;;;20.49;100.00
6514;BME280;3290;47.716;9.070;2023-07-29T04:13:36;96529.09;;;20.40;100.00
6514;BME280;3290;47.716;9.070;2023-07-29T04:16:03;96542.91;;;20.42;100.00
6514;BME280;3290;47.716;9.070;2023-07-29T04:18:29;96544.00;;;20.41;100.00
6514;BME280;3290;47.716;9.070;2023-07-29T04:20:54;96564.84;;;20.34;100.00
6514;BME280;3290;47.716;9.070;2023-07-29T04:23:19;96563.31;;;20.51;100.00
6514;BME280;3290;47.716;9.070;2023-07-29T04:25:45;96564.78;;;20.39;100.00
6514;BME280;3290;47.716;9.070;2023-07-29T04:28:10;96565.34;;;20.36;100.00
6514;BME280;3290;47.716;9.070;2023-07-29T04:30:36;96592.88;;;20.49;100.00
6514;BME280;3290;47.716;9.070;2023-07-29T04:33:01;96595.16;;;20.09;100.00
6514;BME280;3290;47.716;9.070;2023-07-29T04:35:26;96601.28;;;20.10;100.00
6514;BME280;3290;47.716;9.070;2023-07-29T04:37:52;96592.06;;;20.26;100.00
6514;BME280;3290;47.716;9.070;2023-07-29T04:40:17;96580.19;;;20.65;100.00
6514;BME280;3290;47.716;9.070;2023-07-29T04:42:42;96573.81;;;20.84;100.00
6514;BME280;3290;47.716;9.070;2023-07-29T04:45:08;96571.06;;;20.71;100.00
6514;BME280;3290;47.716;9.070;2023-07-29T04:47:33;96578.72;;;20.77;100.00
6514;BME280;3290;47.716;9.070;2023-07-29T04:49:59;96572.34;;;20.73;100.00
6514;BME280;3290;47.716;9.070;2023-07-29T04:52:24;96562.75;;;20.77;100.00
6514;BME280;3290;47.716;9.070;2023-07-29T04:54:50;96555.03;;;20.94;100.00
6514;BME280;3290;47.716;9.070;2023-07-29T04:57:16;96557.41;;;20.95;100.00
6514;BME280;3290;47.716;9.070;2023-07-29T04:59:41;96560.84;;;20.96;100.00
6514;BME280;3290;47.716;9.070;2023-07-29T05:02:06;96557.31;;;20.82;100.00
6514;BME280;3290;47.716;9.070;2023-07-29T05:04:32;96555.94;;;20.66;100.00
6514;BME280;3290;47.716;9.070;2023-07-29T05:06:57;96559.09;;;20.68;100.00
6514;BME280;3290;47.716;9.070;2023-07-29T05:09:23;96551.88;;;20.74;100.00
6514;BME280;3290;47.716;9.070;2023-07-29T05:11:49;96547.94;;;20.66;100.00
6514;BME280;3290;47.716;9.070;2023-07-29T05:14:16;96555.81;;;20.76;100.00
6514;BME280;3290;47.716;9.070;2023-07-29T05:16:42;96543.38;;;20.90;100.00
6514;BME280;3290;47.716;9.070;2023-07-29T05:19:07;96550.13;;;20.83;100.00
6514;BME280;3290;47.716;9.070;2023-07-29T05:21:33;96558.41;;;20.81;100.00
6514;BME280;3290;47.716;9.070;2023-07-29T05:23:58;96546.03;;;20.90;100.00
6514;BME280;3290;47.716;9.070;2023-07-29T05:26:24;96560.00;;;21.19;100.00
6514;BME280;3290;47.716;9.070;2023-07-29T05:28:49;96551.56;;;21.12;100.00
6514;BME280;3290;47.716;9.070;2023-07-29T05:31:14;96566.06;;;21.06;100.00
6514;BME280;3290;47.716;9.070;2023-07-29T05:33:40;96568.59;;;21.16;100.00
6514;BME280;3290;47.716;9.070;2023-07-29T05:36:05;96576.41;;;21.26;100.00
6514;BME280;3290;47.716;9.070;2023-07-29T05:38:31;96577.41;;;21.29;100.00
6514;BME280;3290;47.716;9.070;2023-07-29T05:40:56;96591.94;;;21.42;100.00
6514;BME280;3290;47.716;9.070;2023-07-29T05:43:23;96583.56;;;21.48;100.00
6514;BME280;3290;47.716;9.070;2023-07-29T05:45:49;96596.47;;;21.60;100.00
6514;BME280;3290;47.716;9.070;2023-07-29T05:48:14;96578.66;;;21.55;100.00
6514;BME280;3290;47.716;9.070;2023-07-29T05:50:39;96586.88;;;21.40;100.00
6514;BME280;3290;47.716;9.070;2023-07-29T05:53:05;96593.94;;;21.50;100.00
6514;BME280;3290;47.716;9.070;2023-07-29T05:55:30;96584.66;;;21.47;100.00
6514;BME280;3290;47.716;9.070;2023-07-29T05:57:55;96589.47;;;21.45;100.00
6514;BME280;3290;47.716;9.070;2023-07-29T06:00:21;96597.09;;;21.70;100.00
6514;BME280;3290;47.716;9.070;2023-07-29T06:02:46;96591.91;;;21.92;100.00
6514;BME280;3290;47.716;9.070;2023-07-29T06:05:12;96589.72;;;21.80;100.00
6514;BME280;3290;47.716;9.070;2023-07-29T06:07:37;96586.91;;;22.04;100.00
6514;BME280;3290;47.716;9.070;2023-07-29T06:10:03;96579.09;;;22.07;100.00
6514;BME280;3290;47.716;9.070;2023-07-29T06:12:28;96587.03;;;22.12;100.00
6514;BME280;3290;47.716;9.070;2023-07-29T06:14:54;96596.56;;;22.31;100.00
6514;BME280;3290;47.716;9.070;2023-07-29T06:17:19;96585.09;;;22.44;100.00
6514;BME280;3290;47.716;9.070;2023-07-29T06:19:44;96578.06;;;22.75;100.00
6514;BME280;3290;47.716;9.070;2023-07-29T06:22:10;96571.44;;;22.86;100.00
6514;BME280;3290;47.716;9.070;2023-07-29T06:24:35;96589.53;;;22.89;100.00
6514;BME280;3290;47.716;9.070;2023-07-29T06:27:01;96591.44;;;23.01;100.00
6514;BME280;3290;47.716;9.070;2023-07-29T06:29:26;96579.63;;;23.02;100.00
6514;BME280;3290;47.716;9.070;2023-07-29T06:31:52;96578.81;;;22.89;100.00
6514;BME280;3290;47.716;9.070;2023-07-29T06:34:17;96582.09;;;23.12;100.00
6514;BME280;3290;47.716;9.070;2023-07-29T06:36:43;96580.44;;;23.38;100.00
6514;BME280;3290;47.716;9.070;2023-07-29T06:39:09;96573.50;;;23.59;99.11
6514;BME280;3290;47.716;9.070;2023-07-29T06:41:34;96576.06;;;23.42;100.00
6514;BME280;3290;47.716;9.070;2023-07-29T06:44:00;96575.13;;;23.60;98.85
6514;BME280;3290;47.716;9.070;2023-07-29T06:46:25;96578.50;;;23.52;98.39
6514;BME280;3290;47.716;9.070;2023-07-29T06:48:51;96587.47;;;23.69;100.00
6514;BME280;3290;47.716;9.070;2023-07-29T06:51:16;96579.69;;;23.81;93.26
6514;BME280;3290;47.716;9.070;2023-07-29T06:53:41;96586.75;;;23.42;94.38
6514;BME280;3290;47.716;9.070;2023-07-29T06:56:07;96590.22;;;23.77;94.39
6514;BME280;3290;47.716;9.070;2023-07-29T06:58:32;96586.41;;;24.22;94.55
6514;BME280;3290;47.716;9.070;2023-07-29T07:00:58;96596.59;;;23.90;94.14
6514;BME280;3290;47.716;9.070;2023-07-29T07:03:23;96602.88;;;23.85;93.54
6514;BME280;3290;47.716;9.070;2023-07-29T07:05:48;96601.56;;;24.05;92.57
6514;BME280;3290;47.716;9.070;2023-07-29T07:08:14;96593.25;;;24.06;93.51
6514;BME280;3290;47.716;9.070;2023-07-29T07:10:39;96594.09;;;23.93;91.49
6514;BME280;3290;47.716;9.070;2023-07-29T07:13:05;96583.03;;;23.86;92.22
6514;BME280;3290;47.716;9.070;2023-07-29T07:15:31;96579.13;;;23.71;93.17
6514;BME280;3290;47.716;9.070;2023-07-29T07:17:57;96572.47;;;23.25;93.13
6514;BME280;3290;47.716;9.070;2023-07-29T07:20:22;96570.81;;;23.59;91.72
6514;BME280;3290;47.716;9.070;2023-07-29T07:22:47;96561.84;;;23.55;91.25
6514;BME280;3290;47.716;9.070;2023-07-29T07:25:13;96560.44;;;24.01;90.02
6514;BME280;3290;47.716;9.070;2023-07-29T07:27:38;96566.41;;;23.98;89.97
6514;BME280;3290;47.716;9.070;2023-07-29T07:30:04;96559.88;;;23.82;88.94
6514;BME280;3290;47.716;9.070;2023-07-29T07:32:29;96562.69;;;24.37;86.80
6514;BME280;3290;47.716;9.070;2023-07-29T07:34:55;96565.50;;;24.32;86.89
6514;BME280;3290;47.716;9.070;2023-07-29T07:37:20;96557.91;;;24.64;84.79
6514;BME280;3290;47.716;9.070;2023-07-29T07:39:45;96561.00;;;24.96;82.77
6514;BME280;3290;47.716;9.070;2023-07-29T07:42:11;96565.22;;;24.89;82.31
6514;BME280;3290;47.716;9.070;2023-07-29T07:44:36;96560.81;;;24.93;82.44
6514;BME280;3290;47.716;9.070;2023-07-29T07:47:02;96561.34;;;25.12;82.28
6514;BME280;3290;47.716;9.070;2023-07-29T07:49:27;96557.56;;;25.21;80.53
6514;BME280;3290;47.716;9.070;2023-07-29T07:51:52;96561.81;;;25.47;80.39
6514;BME280;3290;47.716;9.070;2023-07-29T07:54:18;96570.34;;;25.16;80.67
6514;BME280;3290;47.716;9.070;2023-07-29T07:56:43;96574.09;;;24.98;83.37
6514;BME280;3290;47.716;9.070;2023-07-29T07:59:09;96566.25;;;25.43;80.83
6514;BME280;3290;47.716;9.070;2023-07-29T08:01:35;96564.66;;;25.93;78.51
6514;BME280;3290;47.716;9.070;2023-07-29T08:04:01;96563.38;;;25.99;76.57
6514;BME280;3290;47.716;9.070;2023-07-29T08:06:27;96564.31;;;26.03;77.06
6514;BME280;3290;47.716;9.070;2023-07-29T08:08:52;96552.44;;;26.04;75.30
6514;BME280;3290;47.716;9.070;2023-07-29T08:11:17;96556.44;;;25.81;77.26
6514;BME280;3290;47.716;9.070;2023-07-29T08:13:43;96547.72;;;26.09;76.23
6514;BME280;3290;47.716;9.070;2023-07-29T08:16:08;96555.22;;;25.70;77.31
6514;BME280;3290;47.716;9.070;2023-07-29T08:18:34;96561.34;;;25.79;76.75
6514;BME280;3290;47.716;9.070;2023-07-29T08:21:00;96562.72;;;26.02;75.33
6514;BME280;3290;47.716;9.070;2023-07-29T08:23:34;96564.75;;;26.67;72.22
6514;BME280;3290;47.716;9.070;2023-07-29T08:26:04;96562.31;;;26.45;74.13
6514;BME280;3290;47.716;9.070;2023-07-29T08:30:57;96559.78;;;26.49;71.86
6514;BME280;3290;47.716;9.070;2023-07-29T08:33:23;96569.28;;;26.46;72.86
6514;BME280;3290;47.716;9.070;2023-07-29T08:35:48;96558.59;;;26.13;75.26
6514;BME280;3290;47.716;9.070;2023-07-29T08:38:13;96560.38;;;26.54;72.77
6514;BME280;3290;47.716;9.070;2023-07-29T08:40:59;96565.47;;;25.68;75.61
6514;BME280;3290;47.716;9.070;2023-07-29T08:43:31;96557.03;;;26.28;72.06
6514;BME280;3290;47.716;9.070;2023-07-29T08:45:58;96558.25;;;26.68;71.66
6514;BME280;3290;47.716;9.070;2023-07-29T08:48:29;96559.25;;;26.10;72.72
6514;BME280;3290;47.716;9.070;2023-07-29T08:50:58;96567.47;;;26.05;73.03
6514;BME280;3290;47.716;9.070;2023-07-29T08:53:24;96566.66;;;26.58;72.59
6514;BME280;3290;47.716;9.070;2023-07-29T08:55:50;96563.09;;;27.32;68.88
6514;BME280;3290;47.716;9.070;2023-07-29T08:58:16;96553.91;;;27.33;68.58
6514;BME280;3290;47.716;9.070;2023-07-29T09:00:42;96553.25;;;27.56;67.56
6514;BME280;3290;47.716;9.070;2023-07-29T09:03:08;96545.50;;;27.14;69.78
6514;BME280;3290;47.716;9.070;2023-07-29T09:05:34;96546.59;;;27.74;66.36
6514;BME280;3290;47.716;9.070;2023-07-29T09:08:02;96556.88;;;28.24;66.29
6514;BME280;3290;47.716;9.070;2023-07-29T09:10:28;96556.97;;;28.71;64.74
6514;BME280;3290;47.716;9.070;2023-07-29T09:12:53;96556.03;;;28.32;64.49
6514;BME280;3290;47.716;9.070;2023-07-29T09:15:33;96554.16;;;28.12;64.38
6514;BME280;3290;47.716;9.070;2023-07-29T09:18:09;96552.34;;;28.04;65.54
6514;BME280;3290;47.716;9.070;2023-07-29T09:20:34;96548.00;;;27.80;65.47
6514;BME280;3290;47.716;9.070;2023-07-29T09:23:00;96545.28;;;28.91;61.70
6514;BME280;3290;47.716;9.070;2023-07-29T09:25:26;96547.81;;;28.52;60.70
6514;BME280;3290;47.716;9.070;2023-07-29T09:27:52;96551.34;;;28.64;61.33
6514;BME280;3290;47.716;9.070;2023-07-29T09:30:17;96553.28;;;28.20;62.70
6514;BME280;3290;47.716;9.070;2023-07-29T09:32:43;96546.59;;;29.09;60.31
6514;BME280;3290;47.716;9.070;2023-07-29T09:35:12;96556.94;;;29.31;61.16
6514;BME280;3290;47.716;9.070;2023-07-29T09:37:39;96548.88;;;29.07;62.36
6514;BME280;3290;47.716;9.070;2023-07-29T09:40:06;96556.91;;;29.43;62.54
6514;BME280;3290;47.716;9.070;2023-07-29T09:42:31;96551.00;;;29.02;62.35
6514;BME280;3290;47.716;9.070;2023-07-29T09:44:57;96548.97;;;28.87;60.04
6514;BME280;3290;47.716;9.070;2023-07-29T09:47:24;96545.69;;;28.58;60.94
6514;BME280;3290;47.716;9.070;2023-07-29T09:49:50;96543.81;;;28.94;60.30
6514;BME280;3290;47.716;9.070;2023-07-29T09:52:20;96539.63;;;28.61;60.49
6514;BME280;3290;47.716;9.070;2023-07-29T09:54:47;96534.47;;;29.54;59.91
6514;BME280;3290;47.716;9.070;2023-07-29T09:57:14;96533.34;;;29.28;59.89
6514;BME280;3290;47.716;9.070;2023-07-29T09:59:41;96532.66;;;29.19;58.75
6514;BME280;3290;47.716;9.070;2023-07-29T10:02:14;96542.81;;;28.86;60.03
6514;BME280;3290;47.716;9.070;2023-07-29T10:04:43;96531.88;;;28.35;62.54
6514;BME280;3290;47.716;9.070;2023-07-29T10:07:11;96536.69;;;28.42;62.45
6514;BME280;3290;47.716;9.070;2023-07-29T10:09:39;96532.09;;;29.25;60.45
6514;BME280;3290;47.716;9.070;2023-07-29T10:12:06;96534.41;;;28.08;63.54
6514;BME280;3290;47.716;9.070;2023-07-29T10:14:32;96539.94;;;27.39;66.46
6514;BME280;3290;47.716;9.070;2023-07-29T10:16:58;96536.06;;;28.80;61.75
6514;BME280;3290;47.716;9.070;2023-07-29T10:19:25;96529.53;;;28.69;62.32
6514;BME280;3290;47.716;9.070;2023-07-29T10:21:52;96527.94;;;29.28;58.94
6514;BME280;3290;47.716;9.070;2023-07-29T10:24:24;96532.91;;;28.90;62.10
6514;BME280;3290;47.716;9.070;2023-07-29T10:26:57;96531.28;;;29.13;60.91
6514;BME280;3290;47.716;9.070;2023-07-29T10:29:23;96538.16;;;29.61;57.99
6514;BME280;3290;47.716;9.070;2023-07-29T10:31:52;96519.56;;;29.33;57.81
6514;BME280;3290;47.716;9.070;2023-07-29T10:34:18;96534.50;;;28.91;59.44
6514;BME280;3290;47.716;9.070;2023-07-29T10:36:45;96530.25;;;29.68;57.92
6514;BME280;3290;47.716;9.070;2023-07-29T10:39:12;96523.00;;;29.84;57.25
6514;BME280;3290;47.716;9.070;2023-07-29T10:41:59;96523.31;;;29.28;56.78
6514;BME280;3290;47.716;9.070;2023-07-29T10:47:29;96509.28;;;28.28;57.80
6514;BME280;3290;47.716;9.070;2023-07-29T10:49:56;96505.34;;;28.37;57.21
6514;BME280;3290;47.716;9.070;2023-07-29T10:52:40;96506.22;;;28.06;58.41
6514;BME280;3290;47.716;9.070;2023-07-29T10:55:33;96509.88;;;28.01;60.04
6514;BME280;3290;47.716;9.070;2023-07-29T11:00:34;96497.94;;;28.94;56.85
6514;BME280;3290;47.716;9.070;2023-07-29T11:03:06;96505.25;;;28.93;57.77
6514;BME280;3290;47.716;9.070;2023-07-29T11:10:57;96495.69;;;28.96;57.74
6514;BME280;3290;47.716;9.070;2023-07-29T11:13:26;96495.44;;;29.01;57.48
6514;BME280;3290;47.716;9.070;2023-07-29T11:15:53;96491.31;;;29.42;56.19
6514;BME280;3290;47.716;9.070;2023-07-29T11:18:20;96486.41;;;29.59;56.11
6514;BME280;3290;47.716;9.070;2023-07-29T11:20:46;96489.53;;;29.61;56.18
6514;BME280;3290;47.716;9.070;2023-07-29T11:23:13;96483.53;;;30.25;55.10
6514;BME280;3290;47.716;9.070;2023-07-29T11:25:38;96478.50;;;29.39;57.13
6514;BME280;3290;47.716;9.070;2023-07-29T11:28:04;96471.56;;;28.75;57.91
6514;BME280;3290;47.716;9.070;2023-07-29T11:30:29;96470.16;;;28.58;58.06
6514;BME280;3290;47.716;9.070;2023-07-29T11:32:57;96481.63;;;28.90;57.62
6514;BME280;3290;47.716;9.070;2023-07-29T11:35:23;96469.06;;;28.82;58.46
6514;BME280;3290;47.716;9.070;2023-07-29T11:37:50;96461.97;;;28.90;60.15
6514;BME280;3290;47.716;9.070;2023-07-29T11:40:18;96467.94;;;28.36;60.61
6514;BME280;3290;47.716;9.070;2023-07-29T11:42:44;96450.28;;;28.86;58.57
6514;BME280;3290;47.716;9.070;2023-07-29T11:45:10;96443.47;;;28.41;58.65
6514;BME280;3290;47.716;9.070;2023-07-29T11:47:36;96436.81;;;28.74;56.13
6514;BME280;3290;47.716;9.070;2023-07-29T11:50:07;96446.00;;;28.85;57.27
6514;BME280;3290;47.716;9.070;2023-07-29T11:52:35;96449.47;;;29.36;55.79
6514;BME280;3290;47.716;9.070;2023-07-29T11:55:02;96440.78;;;29.43;56.16
6514;BME280;3290;47.716;9.070;2023-07-29T11:57:29;96445.25;;;29.11;55.03
6514;BME280;3290;47.716;9.070;2023-07-29T11:59:55;96441.91;;;28.63;56.88
6514;BME280;3290;47.716;9.070;2023-07-29T12:02:20;96444.59;;;28.28;57.78
6514;BME280;3290;47.716;9.070;2023-07-29T12:04:48;96433.31;;;28.73;58.13
6514;BME280;3290;47.716;9.070;2023-07-29T12:07:17;96443.69;;;28.48;57.93
6514;BME280;3290;47.716;9.070;2023-07-29T12:09:44;96435.59;;;28.36;59.46
6514;BME280;3290;47.716;9.070;2023-07-29T12:12:10;96443.22;;;28.22;60.16
6514;BME280;3290;47.716;9.070;2023-07-29T12:14:35;96451.03;;;27.80;62.88
6514;BME280;3290;47.716;9.070;2023-07-29T12:17:05;96464.00;;;27.66;63.43
6514;BME280;3290;47.716;9.070;2023-07-29T12:19:35;96475.59;;;27.46;65.59
6514;BME280;3290;47.716;9.070;2023-07-29T12:22:02;96483.09;;;27.20;67.99
6514;BME280;3290;47.716;9.070;2023-07-29T12:24:29;96486.03;;;26.87;69.80
6514;BME280;3290;47.716;9.070;2023-07-29T12:26:55;96489.00;;;26.36;71.79
6514;BME280;3290;47.716;9.070;2023-07-29T12:29:20;96504.22;;;26.16;73.90
6514;BME280;3290;47.716;9.070;2023-07-29T12:31:46;96516.38;;;25.76;77.35
6514;BME280;3290;47.716;9.070;2023-07-29T12:34:21;96528.06;;;25.30;81.09
6514;BME280;3290;47.716;9.070;2023-07-29T12:36:48;96529.94;;;25.21;81.67
6514;BME280;3290;47.716;9.070;2023-07-29T12:39:22;96523.94;;;25.07;84.84
6514;BME280;3290;47.716;9.070;2023-07-29T12:41:49;96511.34;;;24.99;89.92
6514;BME280;3290;47.716;9.070;2023-07-29T12:44:15;96518.94;;;24.50;96.10
6514;BME280;3290;47.716;9.070;2023-07-29T12:46:40;96507.22;;;24.29;98.06
6514;BME280;3290;47.716;9.070;2023-07-29T12:49:05;96521.78;;;24.23;98.91
6514;BME280;3290;47.716;9.070;2023-07-29T12:51:31;96521.59;;;24.42;98.27
6514;BME280;3290;47.716;9.070;2023-07-29T12:53:57;96521.47;;;24.25;100.00
6514;BME280;3290;47.716;9.070;2023-07-29T12:56:22;96513.19;;;23.96;100.00
6514;BME280;3290;47.716;9.070;2023-07-29T12:58:47;96518.53;;;23.96;100.00
6514;BME280;3290;47.716;9.070;2023-07-29T13:01:14;96530.50;;;23.99;100.00
6514;BME280;3290;47.716;9.070;2023-07-29T13:03:43;96516.34;;;23.98;100.00
6514;BME280;3290;47.716;9.070;2023-07-29T13:06:09;96539.00;;;23.71;100.00
6514;BME280;3290;47.716;9.070;2023-07-29T13:08:34;96546.91;;;23.75;100.00
6514;BME280;3290;47.716;9.070;2023-07-29T13:10:59;96535.66;;;23.87;100.00
6514;BME280;3290;47.716;9.070;2023-07-29T13:13:25;96534.97;;;23.81;100.00
6514;BME280;3290;47.716;9.070;2023-07-29T13:15:50;96537.03;;;23.84;100.00
6514;BME280;3290;47.716;9.070;2023-07-29T13:18:16;96542.38;;;23.84;100.00
6514;BME280;3290;47.716;9.070;2023-07-29T13:20:41;96542.28;;;23.89;100.00
6514;BME280;3290;47.716;9.070;2023-07-29T13:23:07;96554.75;;;23.50;100.00
6514;BME280;3290;47.716;9.070;2023-07-29T13:25:32;96565.16;;;23.73;100.00
6514;BME280;3290;47.716;9.070;2023-07-29T13:27:57;96565.09;;;23.87;100.00
6514;BME280;3290;47.716;9.070;2023-07-29T13:30:23;96577.56;;;23.70;100.00
6514;BME280;3290;47.716;9.070;2023-07-29T13:32:48;96599.69;;;23.62;100.00